Time;durP1;ratioP1;P1;durP2;ratioP2;P2;SDS_P1;SDS_P2;PMS_P1;PMS_P2;Temp;Humidity;BMP_temperature;BMP_pressure;BME280_temperature;BME280_humidity;BME280_pressure;Samples;Min_cycle;Max_cycle;Signal;HPM_P1;HPM_P2
2021/09/09 00:00:45;;;;;;;17.58;8.38;;;;;;;;;;5113423;28;20043;-63
2021/09/09 00:03:30;;;;;;;12.80;8.23;;;;;;;;;;5113110;28;20047;-63
2021/09/09 00:06:16;;;;;;;9.10;7.88;;;;;;;;;;5113126;28;20122;-63
2021/09/09 00:09:02;;;;;;;9.25;8.35;;;;;;;;;;5112690;28;20052;-63
2021/09/09 00:11:48;;;;;;;14.50;9.20;;;;;;;;;;5113255;28;20044;-63
2021/09/09 00:14:34;;;;;;;11.48;9.25;;;;;;;;;;5112655;28;20052;-63
2021/09/09 00:17:19;;;;;;;9.23;8.30;;;;;;;;;;5113035;28;20421;-63
2021/09/09 00:20:06;;;;;;;9.38;8.40;;;;;;;;;;5112888;28;20047;-63
2021/09/09 00:22:52;;;;;;;10.93;9.38;;;;;;;;;;5112981;28;20047;-63
2021/09/09 00:25:37;;;;;;;9.95;8.93;;;;;;;;;;5112804;28;20130;-63
2021/09/09 00:28:24;;;;;;;10.98;9.60;;;;;;;;;;5112949;28;20060;-63
2021/09/09 00:31:09;;;;;;;10.65;9.20;;;;;;;;;;5112716;28;20043;-63
2021/09/09 00:33:54;;;;;;;10.95;9.20;;;;;;;;;;5112567;28;20051;-63
2021/09/09 00:36:40;;;;;;;10.95;9.75;;;;;;;;;;5112868;28;20048;-63
2021/09/09 00:39:25;;;;;;;12.18;10.18;;;;;;;;;;5112680;28;20118;-62
2021/09/09 00:42:10;;;;;;;11.77;9.57;;;;;;;;;;5112865;28;20047;-63
2021/09/09 00:44:56;;;;;;;11.13;9.82;;;;;;;;;;5112323;28;20501;-62
2021/09/09 00:47:41;;;;;;;11.48;10.15;;;;;;;;;;5112604;28;20051;-62
2021/09/09 00:50:26;;;;;;;11.57;10.38;;;;;;;;;;5112600;28;20060;-63
2021/09/09 00:53:12;;;;;;;11.02;9.93;;;;;;;;;;5112609;28;20052;-63
2021/09/09 00:55:57;;;;;;;12.73;10.57;;;;;;;;;;5112459;28;20081;-63
2021/09/09 00:58:42;;;;;;;12.00;10.50;;;;;;;;;;5112660;28;20059;-63
2021/09/09 01:01:27;;;;;;;16.25;10.32;;;;;;;;;;5097349;28;20118;-63
2021/09/09 01:04:13;;;;;;;13.52;11.05;;;;;;;;;;5112181;28;20051;-63
2021/09/09 01:06:58;;;;;;;10.88;9.77;;;;;;;;;;5112319;28;20083;-63
2021/09/09 01:09:43;;;;;;;12.00;10.50;;;;;;;;;;5112233;28;20051;-62
2021/09/09 01:12:28;;;;;;;12.95;10.88;;;;;;;;;;5112369;28;20052;-63
2021/09/09 01:15:14;;;;;;;11.30;10.20;;;;;;;;;;5111883;28;20509;-63
2021/09/09 01:17:59;;;;;;;12.38;11.15;;;;;;;;;;5112416;28;20405;-63
2021/09/09 01:20:44;;;;;;;12.50;11.20;;;;;;;;;;5113813;28;20051;-63
2021/09/09 01:23:29;;;;;;;12.40;10.68;;;;;;;;;;5116102;28;20472;-63
2021/09/09 01:26:14;;;;;;;11.52;10.10;;;;;;;;;;5101158;28;20087;-64
2021/09/09 01:28:59;;;;;;;13.50;11.20;;;;;;;;;;5116231;28;20134;-63
2021/09/09 01:31:45;;;;;;;11.98;10.57;;;;;;;;;;5116151;28;20055;-64
2021/09/09 01:34:30;;;;;;;17.20;11.85;;;;;;;;;;5115964;28;20048;-63
2021/09/09 01:37:15;;;;;;;12.80;10.98;;;;;;;;;;5116193;28;20122;-63
2021/09/09 01:40:01;;;;;;;13.00;10.85;;;;;;;;;;5116000;28;20124;-64
2021/09/09 01:42:46;;;;;;;11.52;10.38;;;;;;;;;;5116146;28;20051;-63
2021/09/09 01:45:31;;;;;;;13.85;11.18;;;;;;;;;;5115664;28;20421;-63
2021/09/09 01:48:17;;;;;;;12.35;11.05;;;;;;;;;;5115866;28;20056;-63
2021/09/09 01:51:02;;;;;;;11.95;10.48;;;;;;;;;;5116002;28;20056;-62
2021/09/09 01:53:47;;;;;;;13.52;11.80;;;;;;;;;;5115698;28;20052;-63
2021/09/09 01:56:33;;;;;;;13.05;11.73;;;;;;;;;;5115683;28;20497;-63
2021/09/09 01:59:18;;;;;;;13.18;11.85;;;;;;;;;;5115537;28;20425;-63
2021/09/09 02:02:04;;;;;;;17.08;12.45;;;;;;;;;;5115740;28;20055;-63
2021/09/09 02:04:49;;;;;;;13.70;12.27;;;;;;;;;;5115649;28;20047;-62
2021/09/09 02:07:34;;;;;;;13.48;12.07;;;;;;;;;;5115710;28;20044;-63
2021/09/09 02:10:19;;;;;;;14.65;12.50;;;;;;;;;;5115521;28;20508;-63
2021/09/09 02:13:05;;;;;;;14.65;11.73;;;;;;;;;;5115464;28;20047;-63
2021/09/09 02:15:50;;;;;;;15.43;12.77;;;;;;;;;;5115396;28;20055;-62
2021/09/09 02:18:36;;;;;;;18.52;13.45;;;;;;;;;;5115430;28;20456;-63
2021/09/09 02:21:21;;;;;;;14.52;12.98;;;;;;;;;;5115253;28;20047;-63
2021/09/09 02:24:06;;;;;;;14.68;13.05;;;;;;;;;;5115128;28;20048;-63
2021/09/09 02:26:52;;;;;;;14.73;13.23;;;;;;;;;;5115099;28;20493;-63
2021/09/09 02:29:37;;;;;;;13.50;12.20;;;;;;;;;;5115115;28;20119;-63
2021/09/09 02:32:22;;;;;;;15.20;13.50;;;;;;;;;;5114433;28;20051;-63
2021/09/09 02:35:08;;;;;;;14.95;13.23;;;;;;;;;;5114931;28;20048;-63
2021/09/09 02:37:53;;;;;;;15.40;13.27;;;;;;;;;;5115001;28;20055;-63
2021/09/09 02:40:38;;;;;;;14.82;13.05;;;;;;;;;;5114739;28;20043;-62
2021/09/09 02:43:24;;;;;;;18.38;13.88;;;;;;;;;;5114906;28;20048;-63
2021/09/09 02:46:09;;;;;;;16.60;14.10;;;;;;;;;;5114823;28;20429;-63
2021/09/09 02:48:54;;;;;;;18.33;14.45;;;;;;;;;;5114682;28;20047;-63
2021/09/09 02:51:40;;;;;;;15.43;13.82;;;;;;;;;;5114832;28;20127;-63
2021/09/09 02:54:25;;;;;;;17.38;14.73;;;;;;;;;;5114421;28;20083;-63
2021/09/09 02:57:10;;;;;;;17.13;15.48;;;;;;;;;;5113653;28;20051;-62
2021/09/09 02:59:56;;;;;;;17.42;15.45;;;;;;;;;;5113425;28;20118;-64
2021/09/09 03:02:41;;;;;;;21.02;15.13;;;;;;;;;;5114563;28;20122;-64
2021/09/09 03:05:26;;;;;;;16.92;15.10;;;;;;;;;;5114197;28;20126;-63
2021/09/09 03:08:12;;;;;;;16.27;14.38;;;;;;;;;;5114558;28;20118;-63
2021/09/09 03:10:57;;;;;;;16.90;14.95;;;;;;;;;;5114197;28;20598;-63
2021/09/09 03:13:42;;;;;;;16.45;14.38;;;;;;;;;;5113980;28;20060;-62
2021/09/09 03:16:28;;;;;;;18.02;15.70;;;;;;;;;;5114222;28;20052;-62
2021/09/09 03:19:13;;;;;;;21.05;15.27;;;;;;;;;;5113936;28;20549;-63
2021/09/09 03:21:58;;;;;;;18.13;14.38;;;;;;;;;;5129594;22;20055;-62
2021/09/09 03:24:44;;;;;;;19.05;15.52;;;;;;;;;;5114004;28;20522;-63
2021/09/09 03:27:29;;;;;;;17.85;14.85;;;;;;;;;;5114038;28;20055;-62
2021/09/09 03:30:14;;;;;;;16.33;13.82;;;;;;;;;;5113907;28;20090;-63
2021/09/09 03:33:00;;;;;;;18.33;13.75;;;;;;;;;;5114242;28;20047;-63
2021/09/09 03:35:45;;;;;;;17.45;14.45;;;;;;;;;;5113950;28;20044;-62
2021/09/09 03:38:30;;;;;;;16.85;15.05;;;;;;;;;;5113879;28;20051;-62
2021/09/09 03:41:15;;;;;;;18.02;16.15;;;;;;;;;;5113985;28;20048;-62
2021/09/09 03:44:01;;;;;;;18.00;15.88;;;;;;;;;;5113012;28;20043;-62
2021/09/09 03:46:46;;;;;;;19.75;16.63;;;;;;;;;;5113606;28;20056;-63
2021/09/09 03:49:31;;;;;;;19.52;16.85;;;;;;;;;;5113908;28;20052;-63
2021/09/09 03:52:18;;;;;;;26.40;18.38;;;;;;;;;;5113684;28;20055;-62
2021/09/09 03:55:04;;;;;;;22.55;16.55;;;;;;;;;;5113184;28;20051;-62
2021/09/09 03:57:49;;;;;;;22.67;17.15;;;;;;;;;;5113274;28;20043;-62
2021/09/09 04:00:34;;;;;;;24.02;17.70;;;;;;;;;;5113193;28;20047;-62
2021/09/09 04:03:19;;;;;;;20.60;17.10;;;;;;;;;;5113274;28;20055;-62
2021/09/09 04:06:05;;;;;;;19.40;17.40;;;;;;;;;;5113152;28;20134;-62
2021/09/09 04:08:50;;;;;;;21.58;17.52;;;;;;;;;;5113354;28;20133;-62
2021/09/09 04:11:36;;;;;;;19.65;16.23;;;;;;;;;;5113128;28;20048;-62
2021/09/09 04:14:21;;;;;;;21.13;17.63;;;;;;;;;;5112677;28;20051;-62
2021/09/09 04:17:06;;;;;;;21.60;18.55;;;;;;;;;;5113175;28;20047;-62
2021/09/09 04:19:52;;;;;;;26.02;19.50;;;;;;;;;;5113075;28;20051;-62
2021/09/09 04:22:37;;;;;;;22.45;18.52;;;;;;;;;;5112888;28;20043;-62
2021/09/09 04:25:22;;;;;;;22.27;19.08;;;;;;;;;;5112657;28;20066;-62
2021/09/09 04:28:08;;;;;;;23.92;18.50;;;;;;;;;;5102071;28;20048;-62
2021/09/09 04:30:53;;;;;;;21.48;18.85;;;;;;;;;;5104815;28;20097;-62
2021/09/09 04:33:38;;;;;;;21.45;18.38;;;;;;;;;;5092384;28;20056;-62
2021/09/09 04:36:24;;;;;;;23.63;19.10;;;;;;;;;;5092429;28;20055;-62
2021/09/09 04:39:09;;;;;;;24.75;19.33;;;;;;;;;;5092385;28;20088;-62
2021/09/09 04:41:54;;;;;;;22.92;19.10;;;;;;;;;;5092881;28;20040;-63
2021/09/09 04:44:40;;;;;;;22.55;18.48;;;;;;;;;;5093588;28;20119;-63
2021/09/09 04:47:25;;;;;;;26.40;19.95;;;;;;;;;;5093630;28;20127;-62
2021/09/09 04:50:10;;;;;;;24.35;20.63;;;;;;;;;;5093438;28;20123;-62
2021/09/09 04:52:56;;;;;;;24.35;19.70;;;;;;;;;;5093477;28;20063;-62
2021/09/09 04:55:41;;;;;;;22.85;19.23;;;;;;;;;;5093181;28;20039;-63
2021/09/09 04:58:27;;;;;;;21.60;18.05;;;;;;;;;;5094079;28;20100;-63
2021/09/09 05:01:12;;;;;;;19.10;16.88;;;;;;;;;;5094043;28;20060;-62
2021/09/09 05:03:59;;;;;;;49.35;18.98;;;;;;;;;;5094414;28;20127;-63
2021/09/09 05:06:44;;;;;;;26.75;20.83;;;;;;;;;;5093773;28;20056;-62
2021/09/09 05:09:29;;;;;;;26.80;21.10;;;;;;;;;;5094004;28;20075;-63
2021/09/09 05:12:15;;;;;;;24.48;20.08;;;;;;;;;;5094176;28;20048;-62
2021/09/09 05:15:00;;;;;;;30.05;20.27;;;;;;;;;;5094419;28;20123;-63
2021/09/09 05:17:45;;;;;;;23.80;20.88;;;;;;;;;;5095312;28;20446;-62
2021/09/09 05:20:30;;;;;;;24.00;20.00;;;;;;;;;;5091846;28;20127;-62
2021/09/09 05:23:16;;;;;;;22.75;19.50;;;;;;;;;;5091820;28;20055;-62
2021/09/09 05:26:01;;;;;;;25.75;19.50;;;;;;;;;;5092079;28;20122;-62
2021/09/09 05:28:46;;;;;;;24.75;18.73;;;;;;;;;;5091924;28;20504;-62
2021/09/09 05:31:32;;;;;;;23.90;21.25;;;;;;;;;;5091794;28;20127;-62
2021/09/09 05:34:17;;;;;;;21.48;18.70;;;;;;;;;;5091505;28;20417;-62
2021/09/09 05:37:02;;;;;;;25.30;20.50;;;;;;;;;;5091888;28;20060;-62
2021/09/09 05:39:48;;;;;;;24.00;20.42;;;;;;;;;;5091687;28;20417;-62
2021/09/09 05:42:33;;;;;;;29.95;20.00;;;;;;;;;;5091813;28;20052;-62
2021/09/09 05:45:18;;;;;;;22.88;20.02;;;;;;;;;;5091614;28;20052;-62
2021/09/09 05:48:04;;;;;;;24.77;19.38;;;;;;;;;;5091579;28;20123;-62
2021/09/09 05:50:49;;;;;;;26.15;21.80;;;;;;;;;;5095181;28;20044;-62
2021/09/09 05:53:35;;;;;;;27.33;20.73;;;;;;;;;;5091489;28;20048;-62
2021/09/09 05:56:20;;;;;;;24.17;20.13;;;;;;;;;;5108068;28;20490;-62
2021/09/09 05:59:05;;;;;;;25.10;19.60;;;;;;;;;;5112082;28;20131;-62
2021/09/09 06:01:50;;;;;;;24.98;21.33;;;;;;;;;;5111951;28;20052;-62
2021/09/09 06:04:36;;;;;;;27.67;20.88;;;;;;;;;;5111551;28;20093;-62
2021/09/09 06:07:21;;;;;;;26.98;21.30;;;;;;;;;;5099297;28;20417;-62
2021/09/09 06:10:06;;;;;;;23.80;20.70;;;;;;;;;;5115530;28;20052;-63
2021/09/09 06:12:51;;;;;;;25.13;21.67;;;;;;;;;;5115399;28;20055;-62
2021/09/09 06:15:37;;;;;;;27.67;21.25;;;;;;;;;;5114056;28;20044;-62
2021/09/09 06:18:22;;;;;;;23.98;21.38;;;;;;;;;;5102170;28;20040;-63
2021/09/09 06:21:07;;;;;;;24.92;20.98;;;;;;;;;;5104037;28;20445;-62
2021/09/09 06:23:52;;;;;;;28.27;23.13;;;;;;;;;;5104829;28;20044;-62
2021/09/09 06:26:37;;;;;;;29.05;22.48;;;;;;;;;;5087566;28;20044;-63
2021/09/09 06:29:22;;;;;;;30.75;23.33;;;;;;;;;;5103830;28;20480;-62
2021/09/09 06:32:08;;;;;;;30.23;22.85;;;;;;;;;;5104625;28;20051;-62
2021/09/09 06:34:53;;;;;;;25.65;22.15;;;;;;;;;;5102629;28;20163;-63
2021/09/09 06:37:39;;;;;;;27.77;22.80;;;;;;;;;;5103613;28;20044;-63
2021/09/09 06:40:24;;;;;;;28.88;23.75;;;;;;;;;;5104664;28;20119;-62
2021/09/09 06:43:09;;;;;;;25.92;20.67;;;;;;;;;;5089672;28;20434;-62
2021/09/09 06:45:55;;;;;;;29.17;22.10;;;;;;;;;;5103959;28;20501;-62
2021/09/09 06:48:40;;;;;;;26.20;21.90;;;;;;;;;;5114693;28;20083;-63
2021/09/09 06:51:25;;;;;;;26.85;20.55;;;;;;;;;;5114753;28;20055;-63
2021/09/09 06:54:10;;;;;;;24.92;20.95;;;;;;;;;;5114061;28;20126;-63
2021/09/09 06:56:56;;;;;;;26.38;21.02;;;;;;;;;;5114289;28;20051;-63
2021/09/09 06:59:41;;;;;;;22.63;19.08;;;;;;;;;;5102619;28;20064;-62
2021/09/09 07:02:26;;;;;;;23.30;19.40;;;;;;;;;;5096437;28;20078;-63
2021/09/09 07:05:12;;;;;;;25.10;19.45;;;;;;;;;;5113954;28;20115;-62
2021/09/09 07:07:56;;;;;;;27.30;19.98;;;;;;;;;;5114381;28;20119;-63
2021/09/09 07:10:42;;;;;;;24.73;20.02;;;;;;;;;;5114206;28;20051;-62
2021/09/09 07:13:31;;;;;;;24.02;19.05;;;;;;;;;;5113433;28;20047;-63
2021/09/09 07:16:17;;;;;;;23.77;20.38;;;;;;;;;;5113526;28;20489;-63
2021/09/09 07:19:02;;;;;;;24.95;19.98;;;;;;;;;;5112369;28;20114;-62
2021/09/09 07:21:50;;;;;;;22.27;19.10;;;;;;;;;;5113132;28;20051;-63
2021/09/09 07:24:35;;;;;;;21.92;19.58;;;;;;;;;;5113633;28;20426;-62
2021/09/09 07:27:21;;;;;;;21.75;19.40;;;;;;;;;;5114115;28;20055;-62
2021/09/09 07:30:06;;;;;;;19.98;17.88;;;;;;;;;;5113854;28;20525;-63
2021/09/09 07:32:51;;;;;;;21.33;19.02;;;;;;;;;;5113863;28;20421;-62
2021/09/09 07:35:37;;;;;;;21.65;18.77;;;;;;;;;;5107315;28;20044;-63
2021/09/09 07:38:22;;;;;;;24.17;18.52;;;;;;;;;;5093416;28;20123;-63
2021/09/09 07:41:07;;;;;;;20.33;18.13;;;;;;;;;;5093356;28;20044;-63
2021/09/09 07:43:53;;;;;;;23.15;19.73;;;;;;;;;;5092985;28;20509;-63
2021/09/09 07:46:38;;;;;;;20.00;17.92;;;;;;;;;;5093223;28;20052;-62
2021/09/09 07:49:24;;;;;;;21.80;19.52;;;;;;;;;;5093362;28;20053;-63
2021/09/09 07:52:09;;;;;;;19.90;17.90;;;;;;;;;;5078042;28;20052;-63
2021/09/09 07:54:54;;;;;;;19.17;17.23;;;;;;;;;;5092704;28;20502;-63
2021/09/09 07:57:39;;;;;;;20.48;18.00;;;;;;;;;;5093240;28;20405;-63
2021/09/09 08:00:25;;;;;;;21.75;16.63;;;;;;;;;;5077670;28;20060;-63
2021/09/09 08:03:10;;;;;;;18.50;16.60;;;;;;;;;;5092939;28;20056;-63
2021/09/09 08:05:55;;;;;;;18.15;16.08;;;;;;;;;;5093075;28;20047;-63
2021/09/09 08:08:40;;;;;;;19.42;16.63;;;;;;;;;;5092872;28;20048;-63
2021/09/09 08:11:26;;;;;;;20.27;17.33;;;;;;;;;;5092605;28;20059;-63
2021/09/09 08:14:11;;;;;;;18.55;16.55;;;;;;;;;;5092697;28;20052;-63
2021/09/09 08:16:56;;;;;;;19.10;16.58;;;;;;;;;;5092788;28;20044;-63
2021/09/09 08:19:42;;;;;;;20.20;16.63;;;;;;;;;;5092579;28;20123;-63
2021/09/09 08:22:27;;;;;;;18.20;16.30;;;;;;;;;;5092800;28;20048;-63
2021/09/09 08:25:12;;;;;;;18.17;15.75;;;;;;;;;;5092474;28;20055;-63
2021/09/09 08:27:58;;;;;;;19.02;15.60;;;;;;;;;;5092587;28;20056;-63
2021/09/09 08:30:43;;;;;;;16.98;15.27;;;;;;;;;;5091899;28;20063;-63
2021/09/09 08:33:28;;;;;;;18.55;15.82;;;;;;;;;;5092366;28;20056;-63
2021/09/09 08:36:16;;;;;;;16.65;14.85;;;;;;;;;;5092348;28;20143;-63
2021/09/09 08:39:01;;;;;;;20.58;14.77;;;;;;;;;;5092193;28;20055;-63
2021/09/09 08:41:47;;;;;;;17.45;14.30;;;;;;;;;;5092367;28;20067;-63
2021/09/09 08:44:32;;;;;;;17.50;15.70;;;;;;;;;;5092224;28;20052;-64
2021/09/09 08:47:18;;;;;;;17.33;15.52;;;;;;;;;;5092407;28;20056;-64
2021/09/09 08:50:03;;;;;;;20.45;15.70;;;;;;;;;;5092568;28;20056;-62
2021/09/09 08:52:49;;;;;;;17.85;15.45;;;;;;;;;;5091957;28;20414;-64
2021/09/09 08:55:34;;;;;;;16.63;14.93;;;;;;;;;;5092258;28;20052;-64
2021/09/09 08:58:20;;;;;;;16.90;14.93;;;;;;;;;;5092301;28;20072;-63
2021/09/09 09:01:05;;;;;;;16.73;15.00;;;;;;;;;;5092253;28;20048;-64
2021/09/09 09:03:51;;;;;;;16.83;14.88;;;;;;;;;;5092555;28;20448;-64
2021/09/09 09:06:37;;;;;;;18.30;14.68;;;;;;;;;;5092183;28;20056;-63
2021/09/09 09:09:24;;;;;;;15.00;13.50;;;;;;;;;;5092084;28;20052;-64
2021/09/09 09:12:10;;;;;;;15.52;13.90;;;;;;;;;;5091798;28;20056;-63
2021/09/09 09:15:09;;;;;;;14.55;13.15;;;;;;;;;;5091857;28;20514;-63
2021/09/09 09:17:58;;;;;;;15.27;13.68;;;;;;;;;;5092454;28;20052;-64
2021/09/09 09:20:44;;;;;;;14.27;12.68;;;;;;;;;;5092582;28;20064;-63
2021/09/09 09:23:29;;;;;;;14.30;12.18;;;;;;;;;;5091763;28;20422;-63
2021/09/09 09:26:16;;;;;;;14.32;12.30;;;;;;;;;;5091915;28;20044;-63
2021/09/09 09:29:01;;;;;;;16.33;13.07;;;;;;;;;;5091750;28;20040;-63
2021/09/09 09:31:46;;;;;;;15.88;13.00;;;;;;;;;;5091867;28;20048;-63
2021/09/09 09:34:32;;;;;;;14.95;12.10;;;;;;;;;;5091609;28;20048;-63
2021/09/09 09:37:21;;;;;;;14.75;11.35;;;;;;;;;;5091813;28;20048;-63
2021/09/09 09:40:09;;;;;;;13.52;11.68;;;;;;;;;;5091744;28;20060;-63
2021/09/09 09:42:55;;;;;;;14.30;12.27;;;;;;;;;;5095210;28;20506;-63
2021/09/09 09:45:48;;;;;;;13.00;11.63;;;;;;;;;;5080071;28;20052;-63
2021/09/09 09:48:34;;;;;;;13.35;11.32;;;;;;;;;;5095443;28;20422;-63
2021/09/09 09:51:38;;;;;;;14.40;12.60;;;;;;;;;;5095348;28;20048;-63
2021/09/09 09:54:26;;;;;;;12.95;11.73;;;;;;;;;;5095350;28;20056;-63
2021/09/09 09:57:11;;;;;;;13.52;10.77;;;;;;;;;;5095377;28;20080;-63
2021/09/09 09:59:57;;;;;;;12.52;11.23;;;;;;;;;;5095158;28;20048;-63
2021/09/09 10:02:42;;;;;;;12.73;11.40;;;;;;;;;;5095510;28;20055;-63
2021/09/09 10:05:27;;;;;;;14.25;12.80;;;;;;;;;;5095112;28;20079;-63
2021/09/09 10:08:13;;;;;;;14.85;10.98;;;;;;;;;;5095144;28;20060;-63
2021/09/09 10:10:58;;;;;;;12.15;10.95;;;;;;;;;;5095192;28;20052;-63
2021/09/09 10:13:43;;;;;;;12.32;11.05;;;;;;;;;;5095140;28;20056;-64
2021/09/09 10:16:29;;;;;;;12.82;11.00;;;;;;;;;;5095723;28;20410;-63
2021/09/09 10:19:22;;;;;;;11.15;10.05;;;;;;;;;;5095857;28;20622;-64
2021/09/09 10:22:09;;;;;;;13.48;9.18;;;;;;;;;;5095387;28;20044;-63
2021/09/09 10:25:07;;;;;;;10.35;9.45;;;;;;;;;;5094706;28;20055;-63
2021/09/09 10:27:57;;;;;;;11.63;9.48;;;;;;;;;;5095101;28;20127;-64
2021/09/09 10:31:01;;;;;;;11.32;10.07;;;;;;;;;;5094826;28;20055;-64
2021/09/09 10:33:49;;;;;;;11.55;10.45;;;;;;;;;;5094666;28;20059;-64
2021/09/09 10:36:42;;;;;;;10.18;9.13;;;;;;;;;;5094740;28;20048;-64
2021/09/09 10:39:36;;;;;;;11.00;7.97;;;;;;;;;;5094630;28;20052;-63
2021/09/09 10:42:40;;;;;;;10.43;8.52;;;;;;;;;;5094700;28;20522;-65
2021/09/09 10:45:34;;;;;;;12.20;9.25;;;;;;;;;;5094368;28;20052;-64
2021/09/09 10:48:20;;;;;;;9.52;8.68;;;;;;;;;;5094726;28;20060;-63
2021/09/09 10:51:11;;;;;;;12.13;8.70;;;;;;;;;;5094494;28;20052;-64
2021/09/09 10:53:56;;;;;;;11.73;8.52;;;;;;;;;;5093946;28;20056;-64
2021/09/09 10:56:42;;;;;;;8.80;7.90;;;;;;;;;;5094459;28;20052;-64
2021/09/09 10:59:27;;;;;;;10.60;7.60;;;;;;;;;;5094324;28;20671;-64
2021/09/09 11:02:13;;;;;;;14.93;8.23;;;;;;;;;;5094190;28;20418;-65
2021/09/09 11:05:02;;;;;;;13.57;8.80;;;;;;;;;;5079000;28;20056;-64
2021/09/09 11:07:47;;;;;;;10.82;7.35;;;;;;;;;;5094108;28;20080;-63
2021/09/09 11:10:39;;;;;;;8.98;8.13;;;;;;;;;;5093970;28;20048;-64
2021/09/09 11:13:27;;;;;;;9.02;7.68;;;;;;;;;;5094064;28;20063;-64
2021/09/09 11:16:19;;;;;;;9.15;8.18;;;;;;;;;;5094174;28;20123;-64
2021/09/09 11:19:05;;;;;;;8.95;8.05;;;;;;;;;;5093786;28;20118;-64
2021/09/09 11:21:51;;;;;;;8.73;6.97;;;;;;;;;;5093645;28;20052;-64
2021/09/09 11:24:36;;;;;;;7.97;6.85;;;;;;;;;;5093592;28;20044;-63
2021/09/09 11:27:21;;;;;;;7.55;6.60;;;;;;;;;;5093644;28;20052;-64
2021/09/09 11:30:08;;;;;;;7.15;6.43;;;;;;;;;;5093721;28;20060;-63
2021/09/09 11:33:03;;;;;;;7.28;6.57;;;;;;;;;;5093625;28;20082;-63
2021/09/09 11:36:01;;;;;;;9.55;7.00;;;;;;;;;;5093216;28;20056;-63
2021/09/09 11:38:47;;;;;;;7.25;6.53;;;;;;;;;;5093559;28;20048;-64
2021/09/09 11:41:32;;;;;;;8.15;6.82;;;;;;;;;;5093286;28;20565;-64
2021/09/09 11:44:23;;;;;;;7.88;6.88;;;;;;;;;;5092969;28;20048;-64
2021/09/09 11:47:20;;;;;;;7.90;6.80;;;;;;;;;;5093441;28;20060;-64
2021/09/09 11:50:06;;;;;;;7.10;6.40;;;;;;;;;;5093101;28;20056;-63
2021/09/09 11:53:01;;;;;;;7.85;7.18;;;;;;;;;;5093395;28;20052;-63
2021/09/09 11:55:46;;;;;;;8.00;6.82;;;;;;;;;;5092978;28;20048;-63
2021/09/09 11:58:32;;;;;;;8.05;6.80;;;;;;;;;;5093023;28;20119;-63
2021/09/09 12:01:17;;;;;;;8.73;7.47;;;;;;;;;;5077944;28;20068;-63
2021/09/09 12:04:02;;;;;;;11.60;7.63;;;;;;;;;;5092069;28;20433;-63
2021/09/09 12:06:47;;;;;;;8.05;7.20;;;;;;;;;;5077790;28;20052;-63
2021/09/09 12:09:33;;;;;;;11.38;7.72;;;;;;;;;;5093094;28;20094;-63
2021/09/09 12:12:19;;;;;;;10.05;8.38;;;;;;;;;;5092820;28;20414;-64
2021/09/09 12:15:08;;;;;;;8.70;7.88;;;;;;;;;;5092422;28;20225;-64
2021/09/09 12:17:53;;;;;;;11.40;7.80;;;;;;;;;;5092547;28;20526;-64
2021/09/09 12:20:39;;;;;;;9.23;8.05;;;;;;;;;;5092580;28;20056;-64
2021/09/09 12:23:24;;;;;;;9.18;7.35;;;;;;;;;;5092537;28;20044;-63
2021/09/09 12:26:16;;;;;;;9.00;7.88;;;;;;;;;;5092497;28;20406;-64
2021/09/09 12:29:14;;;;;;;24.83;8.35;;;;;;;;;;5092455;28;20498;-64
2021/09/09 12:31:59;;;;;;;11.43;7.90;;;;;;;;;;5092359;28;20044;-64
2021/09/09 12:34:44;;;;;;;8.02;7.05;;;;;;;;;;5076975;28;20461;-64
2021/09/09 12:37:30;;;;;;;8.02;7.22;;;;;;;;;;5092409;28;20048;-64
2021/09/09 12:40:15;;;;;;;10.57;7.22;;;;;;;;;;5092349;28;20123;-64
2021/09/09 12:43:19;;;;;;;9.55;7.53;;;;;;;;;;5077359;28;20048;-64
2021/09/09 12:46:04;;;;;;;8.38;7.45;;;;;;;;;;5092344;28;20052;-64
2021/09/09 12:49:02;;;;;;;9.50;7.97;;;;;;;;;;5092206;28;20048;-65
2021/09/09 12:51:50;;;;;;;10.55;7.85;;;;;;;;;;5092325;28;20447;-65
2021/09/09 12:54:39;;;;;;;7.63;6.82;;;;;;;;;;5092041;28;20444;-64
2021/09/09 12:57:31;;;;;;;7.72;6.95;;;;;;;;;;5092021;28;20044;-63
2021/09/09 13:00:16;;;;;;;9.57;6.43;;;;;;;;;;5091978;28;20545;-65
2021/09/09 13:03:01;;;;;;;9.02;6.82;;;;;;;;;;5092038;28;20097;-65
2021/09/09 13:05:46;;;;;;;6.95;5.82;;;;;;;;;;5092032;28;20127;-64
2021/09/09 13:08:32;;;;;;;8.35;6.63;;;;;;;;;;5092229;28;20127;-65
2021/09/09 13:11:17;;;;;;;7.57;6.43;;;;;;;;;;5091951;28;20476;-63
2021/09/09 13:14:02;;;;;;;6.93;6.25;;;;;;;;;;5091676;28;20530;-64
2021/09/09 13:16:48;;;;;;;7.40;6.65;;;;;;;;;;5095651;28;20048;-64
2021/09/09 13:19:34;;;;;;;7.78;6.60;;;;;;;;;;5096224;28;20052;-64
2021/09/09 13:22:19;;;;;;;7.22;6.53;;;;;;;;;;5095811;28;20056;-64
2021/09/09 13:25:05;;;;;;;9.60;6.78;;;;;;;;;;5095949;28;20048;-64
2021/09/09 13:27:50;;;;;;;8.82;7.03;;;;;;;;;;5096042;28;20052;-64
2021/09/09 13:30:36;;;;;;;8.60;7.20;;;;;;;;;;5095800;28;20417;-65
2021/09/09 13:33:22;;;;;;;11.23;6.90;;;;;;;;;;5096083;28;20052;-64
2021/09/09 13:36:07;;;;;;;8.38;6.93;;;;;;;;;;5095874;28;20051;-64
2021/09/09 13:38:52;;;;;;;7.70;6.22;;;;;;;;;;5095680;28;20119;-64
2021/09/09 13:41:37;;;;;;;8.45;6.43;;;;;;;;;;5095963;28;20102;-64
2021/09/09 13:44:23;;;;;;;7.43;6.40;;;;;;;;;;5095586;28;20155;-63
2021/09/09 13:47:08;;;;;;;6.72;6.10;;;;;;;;;;5095412;28;20044;-64
2021/09/09 13:49:54;;;;;;;7.53;6.35;;;;;;;;;;5095701;28;20048;-64
2021/09/09 13:52:39;;;;;;;9.50;6.25;;;;;;;;;;5095484;28;20522;-63
2021/09/09 13:55:24;;;;;;;6.88;5.93;;;;;;;;;;5095176;28;20047;-63
2021/09/09 13:58:10;;;;;;;7.25;6.55;;;;;;;;;;5095508;28;20051;-63
2021/09/09 14:00:55;;;;;;;7.25;6.28;;;;;;;;;;5095336;28;20052;-63
2021/09/09 14:03:40;;;;;;;6.82;6.07;;;;;;;;;;5095137;28;20052;-64
2021/09/09 14:06:26;;;;;;;8.32;7.00;;;;;;;;;;5095336;28;20044;-64
2021/09/09 14:09:11;;;;;;;9.40;6.72;;;;;;;;;;5108064;28;20044;-64
2021/09/09 14:11:56;;;;;;;7.22;6.53;;;;;;;;;;5107225;28;20052;-64
2021/09/09 14:14:42;;;;;;;8.52;7.35;;;;;;;;;;5100468;28;20522;-64
2021/09/09 14:17:27;;;;;;;12.80;7.47;;;;;;;;;;5095085;28;20052;-64
2021/09/09 14:20:13;;;;;;;13.20;8.18;;;;;;;;;;5094789;28;20056;-65
2021/09/09 14:22:58;;;;;;;7.93;7.13;;;;;;;;;;5095113;28;20052;-64
2021/09/09 14:25:43;;;;;;;6.65;6.13;;;;;;;;;;5101933;28;20071;-64
2021/09/09 14:28:28;;;;;;;8.85;6.90;;;;;;;;;;5108130;28;20047;-64
2021/09/09 14:31:17;;;;;;;8.93;7.25;;;;;;;;;;5102224;28;20517;-64
2021/09/09 14:34:02;;;;;;;9.63;6.90;;;;;;;;;;5103089;28;20064;-63
2021/09/09 14:36:47;;;;;;;11.48;7.78;;;;;;;;;;5109865;28;20051;-63
2021/09/09 14:39:33;;;;;;;11.50;7.20;;;;;;;;;;5096536;28;20044;-63
2021/09/09 14:42:18;;;;;;;12.70;7.85;;;;;;;;;;5096132;28;20394;-63
2021/09/09 14:45:04;;;;;;;10.48;7.68;;;;;;;;;;5094480;28;20044;-63
2021/09/09 14:47:49;;;;;;;25.45;8.75;;;;;;;;;;5096823;28;20077;-63
2021/09/09 14:50:34;;;;;;;23.23;8.75;;;;;;;;;;5096526;28;20048;-64
2021/09/09 14:53:19;;;;;;;28.17;8.30;;;;;;;;;;5112792;28;20051;-64
2021/09/09 14:56:05;;;;;;;91.85;15.82;;;;;;;;;;5114465;28;20452;-64
2021/09/09 14:58:50;;;;;;;31.02;11.70;;;;;;;;;;5114706;28;20047;-64
2021/09/09 15:01:35;;;;;;;13.35;8.38;;;;;;;;;;5114255;28;20055;-64
2021/09/09 15:04:21;;;;;;;195.57;25.88;;;;;;;;;;5093322;28;20530;-63
2021/09/09 15:07:06;;;;;;;14.05;8.75;;;;;;;;;;5094110;28;20120;-64
2021/09/09 15:09:51;;;;;;;10.88;8.63;;;;;;;;;;5093504;28;20048;-64
2021/09/09 15:12:37;;;;;;;15.70;8.52;;;;;;;;;;5093839;28;20044;-64
2021/09/09 15:15:22;;;;;;;12.60;8.45;;;;;;;;;;5093682;28;20048;-63
2021/09/09 15:18:07;;;;;;;20.35;8.95;;;;;;;;;;5098807;28;20048;-64
2021/09/09 15:20:53;;;;;;;23.50;10.57;;;;;;;;;;5103470;28;20044;-64
2021/09/09 15:23:38;;;;;;;14.65;11.68;;;;;;;;;;5104438;28;20055;-64
2021/09/09 15:26:23;;;;;;;12.63;11.23;;;;;;;;;;5095146;28;20052;-64
2021/09/09 15:29:08;;;;;;;12.82;11.48;;;;;;;;;;5092828;28;20056;-64
2021/09/09 15:31:54;;;;;;;12.30;11.13;;;;;;;;;;5144546;22;20040;-62
2021/09/09 15:34:39;;;;;;;13.10;11.75;;;;;;;;;;5085566;28;20052;-61
2021/09/09 15:37:24;;;;;;;15.15;12.50;;;;;;;;;;5093782;28;20051;-62
2021/09/09 15:40:10;;;;;;;12.68;11.35;;;;;;;;;;5111184;28;20051;-61
2021/09/09 15:42:55;;;;;;;15.77;11.55;;;;;;;;;;5114019;28;20405;-61
2021/09/09 15:45:40;;;;;;;25.02;11.68;;;;;;;;;;5093318;28;20048;-61
2021/09/09 15:48:26;;;;;;;15.63;11.38;;;;;;;;;;5093508;28;20055;-62
2021/09/09 15:51:13;;;;;;;14.75;10.90;;;;;;;;;;5107289;28;20056;-62
2021/09/09 15:53:58;;;;;;;41.78;14.25;;;;;;;;;;5113417;28;20421;-62
2021/09/09 15:56:43;;;;;;;12.30;10.95;;;;;;;;;;5112366;28;20124;-62
2021/09/09 15:59:29;;;;;;;14.55;11.55;;;;;;;;;;5113576;28;20126;-62
2021/09/09 16:02:14;;;;;;;13.80;10.77;;;;;;;;;;5113294;28;20509;-61
2021/09/09 16:05:00;;;;;;;11.95;10.68;;;;;;;;;;5103823;28;20122;-61
2021/09/09 16:07:45;;;;;;;11.32;10.13;;;;;;;;;;5093060;28;20051;-62
2021/09/09 16:10:31;;;;;;;12.68;10.88;;;;;;;;;;5093015;28;20048;-62
2021/09/09 16:13:16;;;;;;;13.38;10.85;;;;;;;;;;5093136;28;20056;-62